• Join FlightAware (Why Join?)
  • Login
  • US Flag 
09:26PM EST


 

Airport Tracker/Info


-or-


 

Live Flight TrackerFlight Track Log ✈ N801BB ✈ 16-Jul-2014 ✈ KPIE - MYBC / CCZ

Flight Track Log - Related Links

Times and Time Zones

All times are in EDT time to prevent confusion due to time zone crossing. See the N801BB flight status page for this flight to view local times or setup timezone preferences in your user account.

Time Position Orientation Groundspeed Altitude Reporting Facility
EDT Latitude Longitude Course Direction KTS MPH feet Rate Location/Type
08:29AM 27.9000 -82.6833 154° Southeast 157 181 500  Level Tampa TRACON
08:30AM 27.8500 -82.7000 196° South 177 204 2,900 2,280 Climbing Tampa TRACON
08:31AM 27.7833 -82.6833 168° South 202 232 5,400 2,100 Climbing Tampa TRACON
08:34AM 27.6597 -82.6383 162° South 210 242 10,400 1,980 Climbing Miami Center
08:35AM 27.6605 -82.1820 154° Southeast  Level Estimated
08:35AM 27.6022 -82.6528 193° South 221 254 12,300  Level Miami Center
08:36AM 27.5411 -82.6469 175° South 229 264 14,100 1,620 Climbing Miami Center
08:37AM 27.4817 -82.6158 155° Southeast 236 272 15,700 1,740 Climbing Miami Center
08:38AM 27.4128 -82.5561 142° Southeast 261 300 17,700 1,680 Climbing Miami Center
08:39AM 27.3536 -82.5033 142° Southeast 260 299 19,200 1,440 Climbing Miami Center
08:40AM 27.2917 -82.4472 141° Southeast 269 310 20,700 1,260 Climbing Miami Center
08:41AM 27.2392 -82.4000 141° Southeast 273 314 21,900 1,320 Climbing Miami Center
08:42AM 27.1772 -82.3453 142° Southeast 279 321 23,500 1,500 Climbing Miami Center
08:43AM 27.1244 -82.2589 124° Southeast 293 337 25,000 1,320 Climbing Miami Center
08:44AM 27.0886 -82.1728 115° Southeast 292 336 26,300 1,140 Climbing Miami Center
08:45AM 27.0517 -82.0917 117° Southeast 297 342 27,400 1,020 Climbing Miami Center
08:46AM 27.0150 -82.0011 114° Southeast 303 349 28,400 780 Climbing Miami Center
08:47AM 26.9767 -81.9172 117° Southeast 309 356 29,000 240 Climbing Miami Center
08:48AM 26.9367 -81.8194 115° Southeast 345 397 29,000  Level Miami Center
08:49AM 26.8894 -81.7139 117° Southeast 372 428 29,000  Level Miami Center
08:50AM 26.8339 -81.5928 117° Southeast 388 447 29,000  Level Miami Center
08:51AM 26.7642 -81.4922 128° Southeast 392 451 29,000  Level Miami Center
08:52AM 26.7003 -81.3967 127° Southeast 398 458 29,000  Level Miami Center
08:53AM 26.6314 -81.2933 127° Southeast 397 457 29,000  Level Miami Center
08:54AM 26.5617 -81.1886 127° Southeast 398 458 29,000  Level Miami Center
08:55AM 26.5028 -81.0775 121° Southeast 400 460 29,000  Level Miami Center
08:56AM 26.4583 -80.9581 113° Southeast 403 464 29,000  Level Miami Center
08:57AM 26.4111 -80.8456 115° Southeast 402 463 29,000  Level Miami Center
08:58AM 26.3681 -80.7333 113° Southeast 397 457 29,000  Level Miami Center
08:59AM 26.3175 -80.6136 115° Southeast 397 457 29,000  Level Miami Center
09:00AM 26.2731 -80.5000 114° Southeast 398 458 29,000  Level Miami Center
09:01AM 26.2317 -80.4031 115° Southeast 396 456 29,000  Level Miami Center
09:02AM 26.1875 -80.2906 114° Southeast 396 456 29,000  Level Miami Center
09:03AM 26.1400 -80.1797 115° Southeast 395 455 29,000  Level Miami Center
09:04AM 26.0958 -80.0647 113° Southeast 403 464 29,000  Level Miami Center
09:05AM 26.0397 -79.9319 115° Southeast 394 453 29,000  Level Miami Center
09:06AM 25.9928 -79.8211 115° Southeast 395 455 29,000 -60 Level Miami Center
09:07AM 25.9475 -79.7094 114° Southeast 396 456 28,900 -780 Descending Miami Center
09:08AM 25.8983 -79.5939 115° Southeast 418 481 27,500 -1,320 Descending Miami Center
09:09AM 25.8503 -79.4772 115° Southeast 417 480 26,200 -1,260 Descending Miami Center
09:10AM 25.8011 -79.3617 115° Southeast 413 475 25,000 -1,380 Descending Miami Center
09:12AM 25.7544 -79.2475 114° Southeast 408 470 23,400 -1,620 Descending Miami Center
09:13AM 25.7047 -79.1369 117° Southeast 406 467 21,800 -1,500 Descending Miami Center
09:14AM 25.6600 -79.0269 114° Southeast 395 455 20,400 -1,380 Descending Miami Center
09:15AM 25.6167 -78.9008 111° Southeast 381 438 19,000 -1,320 Descending Miami Center
09:16AM 25.6031 -78.7842 97° East 347 399 17,800 -1,380 Descending Miami Center
09:17AM 25.5814 -78.6781 103° East 349 402 16,200 -1,800 Descending Miami Center
09:18AM 25.5622 -78.5725 101° East 349 402 14,200 -1,860 Descending Miami Center
09:19AM 25.5403 -78.4700 103° East 346 398 12,500 -1,800 Descending Miami Center
09:20AM 25.5217 -78.3717 102° East 330 380 10,600 -1,920 Descending Miami Center